Česky Dansk Deutsch English Español Suomi Français Magyar Italiano Nederlands norsk Polski Português svenska Türkçe

 

Het Weer

Ivalo (Finland)

08:50, 1 augustus 2016 (GMT)

NWNNE
WE
SWSSE
Home            
Ivalo Sodankyla Kittila Kirkenes Lufthavn Enontekio Kautokeino Vadso Banak Alta Lufthavn Murmansk Rovaniemi Svartnes Batsfjord Pello Berlevag Mehamn Hammerfest Honningsvag / Valan Sorkjosen Hasvik Kuusamo Kiruna Airport Gallivare

Om een weerknop op uw website of weblog te plaatsen, copieer onderstaande code en plak die in uw pagina. In het eerste vakje staat HTML-code, in het tweede vakje UBB-code.


Add to Google

Details

Wind speed:4 bf, 11 kn, 5.7 m/s, 12.7 miles/h, 20.4 km/h
Wind direction:NNE, 030°
Visibility:Greater than 10000 m, 10 km, 32800 ft, 6.2 miles
Clouds:Geschlossene Wolkendecke at 500 ft, 152 m
Het Weer:light rain
Temperature:9°C, 48°F
Dew-point:9°C, 48°F
Atmospheric pressure:1003 hPa, 752.3 mmHg, 29.62 inHg, 0.990 atm
Relative humidity:100.0 %
METAR:EFIV 010850Z AUTO 03011KT 9999 -RA OVC005 09/09 Q1003

Snelkoppelingen

Actuele weersinformatie van de hele wereld. Voeg locaties toe met het plus (+) symbool. Deze snelkoppelingen kunnen worden toegevoegd aan Google.

Lid van de Technetium groep

website free tracking
StatCounter NetStat W3C Validator

24-10-2020 08:10:11
astro.technetium.be money.technetium.be phote.technetium.be tafeltennistafel.technetium.be www.ligfiets.net